Time;durP1;ratioP1;P1;durP2;ratioP2;P2;SDS_P1;SDS_P2;PMS_P1;PMS_P2;Temp;Humidity;BMP_temperature;BMP_pressure;BME280_temperature;BME280_humidity;BME280_pressure;Samples;Min_cycle;Max_cycle;Signal;HPM_P1;HPM_P2
2022/04/09 00:00:31;;;;;;;14.85;3.58;;;;;;;3.10;78.36;100392.78;5113096;28;20019;-60
2022/04/09 00:02:58;;;;;;;19.67;4.00;;;;;;;3.08;79.54;100399.88;5113314;27;20069;-60
2022/04/09 00:05:23;;;;;;;16.50;4.20;;;;;;;3.08;79.85;100396.38;5113581;28;20031;-59
2022/04/09 00:07:49;;;;;;;13.30;4.05;;;;;;;3.07;79.24;100402.59;5113287;28;20038;-60
2022/04/09 00:10:15;;;;;;;14.75;4.07;;;;;;;3.05;79.01;100407.91;5113080;28;20028;-60
2022/04/09 00:12:44;;;;;;;18.67;3.70;;;;;;;3.04;79.68;100410.63;5113387;28;20020;-60
2022/04/09 00:15:10;;;;;;;14.10;3.63;;;;;;;3.03;79.71;100415.03;5112965;28;20039;-60
2022/04/09 00:17:40;;;;;;;16.02;4.57;;;;;;;3.01;79.89;100423.88;5113134;28;20080;-60
2022/04/09 00:20:06;;;;;;;18.80;3.83;;;;;;;2.99;79.94;100423.97;5112720;27;20031;-60
2022/04/09 00:22:32;;;;;;;15.75;3.58;;;;;;;3.00;79.94;100432.66;5113173;28;20509;-60
2022/04/09 00:24:57;;;;;;;17.83;4.40;;;;;;;2.98;79.74;100438.00;5112760;28;20027;-60
2022/04/09 00:27:22;;;;;;;19.75;4.07;;;;;;;2.96;80.33;100443.34;5112376;28;20035;-60
2022/04/09 00:29:47;;;;;;;15.48;3.78;;;;;;;2.97;80.24;100446.81;5111632;28;20477;-60
2022/04/09 00:32:13;;;;;;;19.40;3.90;;;;;;;2.95;80.38;100443.44;5112757;28;20041;-60
2022/04/09 00:34:38;;;;;;;12.15;3.63;;;;;;;2.93;80.20;100448.75;5112933;28;20061;-60
2022/04/09 00:37:04;;;;;;;15.27;4.28;;;;;;;2.94;80.11;100457.44;5112408;28;20345;-59
2022/04/09 00:39:29;;;;;;;21.42;5.05;;;;;;;2.94;80.67;100457.44;5112436;28;20411;-60
2022/04/09 00:41:54;;;;;;;13.55;3.83;;;;;;;2.94;80.48;100460.06;5112568;28;20031;-59
2022/04/09 00:44:21;;;;;;;19.45;3.92;;;;;;;2.93;80.32;100472.34;5111266;28;20415;-60
2022/04/09 00:46:47;;;;;;;18.27;4.22;;;;;;;2.93;80.71;100461.88;5112375;28;20046;-60
2022/04/09 00:49:13;;;;;;;17.90;5.18;;;;;;;2.92;80.47;100470.66;5112675;28;20055;-59
2022/04/09 00:51:43;;;;;;;16.77;4.07;;;;;;;2.93;80.59;100466.25;5112231;28;20034;-60
2022/04/09 00:54:14;;;;;;;21.90;4.38;;;;;;;2.92;80.55;100486.38;5112254;28;20359;-60
2022/04/09 00:56:41;;;;;;;16.50;4.32;;;;;;;2.91;80.09;100484.69;5132461;27;20038;-60
2022/04/09 00:59:10;;;;;;;16.48;4.07;;;;;;;2.92;80.49;100496.03;5132517;27;20038;-60
2022/04/09 01:01:38;;;;;;;20.05;4.22;;;;;;;2.84;80.17;100485.91;5132863;27;20031;-60
2022/04/09 01:04:11;;;;;;;17.58;4.55;;;;;;;2.88;79.71;100491.84;5132190;27;20023;-59
2022/04/09 01:06:38;;;;;;;15.05;3.60;;;;;;;2.86;80.40;100493.72;5112075;28;20388;-60
2022/04/09 01:09:06;;;;;;;18.17;3.78;;;;;;;2.86;80.24;100505.03;5112342;28;20035;-60
2022/04/09 01:11:32;;;;;;;13.32;3.90;;;;;;;2.85;80.29;100510.38;5111537;28;20058;-60
2022/04/09 01:13:58;;;;;;;16.55;4.25;;;;;;;2.82;80.42;100516.63;5111807;28;20362;-60
2022/04/09 01:16:28;;;;;;;19.08;3.42;;;;;;;2.82;80.18;100518.41;5111592;28;20034;-60
2022/04/09 01:18:53;;;;;;;16.95;4.10;;;;;;;2.77;80.54;100521.25;5111740;28;20023;-59
2022/04/09 01:21:19;;;;;;;14.15;4.43;;;;;;;2.73;80.83;100531.06;5111750;28;20023;-60
2022/04/09 01:23:44;;;;;;;15.20;3.45;;;;;;;2.72;80.29;100539.84;5111617;28;20060;-60
2022/04/09 01:26:09;;;;;;;16.02;3.70;;;;;;;2.70;80.59;100539.06;5111387;28;20070;-60
2022/04/09 01:28:35;;;;;;;14.32;3.78;;;;;;;2.69;80.72;100547.84;5111575;28;20375;-60
2022/04/09 01:31:00;;;;;;;16.13;3.97;;;;;;;2.68;80.53;100550.53;5111448;27;20050;-59
2022/04/09 01:33:26;;;;;;;13.93;3.92;;;;;;;2.66;80.87;100550.63;5111525;28;20019;-59
2022/04/09 01:35:51;;;;;;;15.98;3.85;;;;;;;2.65;80.64;100553.31;5111287;28;20562;-59
2022/04/09 01:38:17;;;;;;;12.40;3.30;;;;;;;2.63;80.36;100563.03;5111770;28;20035;-60
2022/04/09 01:40:42;;;;;;;16.63;3.85;;;;;;;2.58;80.92;100558.88;5110849;28;20027;-60
2022/04/09 01:43:08;;;;;;;14.32;3.10;;;;;;;2.59;81.23;100565.78;5111408;28;20027;-61
2022/04/09 01:45:34;;;;;;;22.27;3.95;;;;;;;2.57;81.53;100564.19;5111483;28;20118;-60
2022/04/09 01:47:59;;;;;;;20.85;4.43;;;;;;;2.55;81.17;100572.13;5110428;27;20076;-60
2022/04/09 01:50:28;;;;;;;18.25;3.75;;;;;;;2.55;81.59;100576.53;5110885;28;20103;-60
2022/04/09 01:52:54;;;;;;;18.80;3.58;;;;;;;2.51;81.19;100578.41;5111220;28;20486;-60
2022/04/09 01:55:20;;;;;;;14.75;3.53;;;;;;;2.52;81.36;100589.78;5111348;27;20034;-60
2022/04/09 01:57:47;;;;;;;11.93;3.15;;;;;;;2.50;81.26;100595.09;5111551;28;20530;-60
2022/04/09 02:00:13;;;;;;;14.35;3.22;;;;;;;2.51;81.77;100595.94;5126857;27;20028;-60
2022/04/09 02:02:38;;;;;;;14.93;3.90;;;;;;;2.49;81.65;100592.53;5111213;28;20092;-60
2022/04/09 02:05:04;;;;;;;18.13;3.15;;;;;;;2.50;81.98;100597.72;5110908;28;20040;-60
2022/04/09 02:07:30;;;;;;;20.67;3.78;;;;;;;2.48;81.74;100604.81;5111433;28;20122;-60
2022/04/09 02:09:55;;;;;;;18.73;3.72;;;;;;;2.49;82.13;100606.47;5111314;28;20126;-60
2022/04/09 02:12:20;;;;;;;19.30;4.03;;;;;;;2.49;82.60;100611.72;5110915;28;20063;-61
2022/04/09 02:14:46;;;;;;;17.00;3.75;;;;;;;2.48;82.25;100615.28;5110977;28;20028;-60
2022/04/09 02:17:12;;;;;;;17.13;3.72;;;;;;;2.49;82.26;100614.34;5110696;28;20063;-60
2022/04/09 02:19:38;;;;;;;16.63;3.40;;;;;;;2.50;82.05;100621.31;5111292;28;20102;-60
2022/04/09 02:22:03;;;;;;;17.73;3.63;;;;;;;2.49;82.48;100632.69;5110650;28;20027;-60
2022/04/09 02:27:04;;;;;;;16.38;3.78;;;;;;;2.48;82.59;100638.88;4765536;22;20435;-62
2022/04/09 02:29:29;;;;;;;12.35;3.30;;;;;;;2.47;82.33;100645.03;5091489;28;20042;-63
2022/04/09 02:31:54;;;;;;;20.70;3.83;;;;;;;2.47;82.75;100646.81;5090504;28;20032;-63
2022/04/09 02:34:20;;;;;;;13.48;3.42;;;;;;;2.46;82.25;100643.31;5100430;28;20030;-64
2022/04/09 02:36:45;;;;;;;19.15;3.85;;;;;;;2.45;82.31;100644.25;5110792;28;20027;-64
2022/04/09 02:39:10;;;;;;;16.15;3.85;;;;;;;2.46;82.40;100655.59;5102661;28;20019;-64
2022/04/09 02:41:35;;;;;;;15.75;3.78;;;;;;;2.46;82.23;100652.97;5090471;28;20035;-64
2022/04/09 02:44:01;;;;;;;13.43;3.65;;;;;;;2.45;81.43;100662.59;5110114;28;20030;-64
2022/04/09 02:46:26;;;;;;;18.08;3.78;;;;;;;2.45;81.42;100662.59;5110621;28;20036;-64
2022/04/09 02:48:51;;;;;;;15.85;4.03;;;;;;;2.45;81.89;100664.34;5095529;28;20094;-64
2022/04/09 02:51:18;;;;;;;18.35;3.97;;;;;;;2.48;81.70;100670.34;5090268;28;20431;-64
2022/04/09 02:53:44;;;;;;;13.02;3.13;;;;;;;2.51;81.76;100677.19;5094045;28;20051;-64
2022/04/09 02:56:09;;;;;;;17.65;3.17;;;;;;;2.53;81.41;100683.22;5094255;28;20028;-64
2022/04/09 02:58:34;;;;;;;16.67;3.28;;;;;;;2.54;81.85;100683.13;5094104;28;20432;-64
2022/04/09 03:00:59;;;;;;;15.20;3.05;;;;;;;2.55;81.36;100695.34;5113210;28;20031;-64
2022/04/09 03:03:24;;;;;;;17.20;3.75;;;;;;;2.55;80.77;100697.13;5102018;28;20036;-63
2022/04/09 03:05:50;;;;;;;15.95;3.35;;;;;;;2.54;81.39;100698.03;5094427;28;20028;-63
2022/04/09 03:08:15;;;;;;;14.02;3.78;;;;;;;2.53;81.02;100699.81;5093522;28;20104;-64
2022/04/09 03:10:40;;;;;;;12.63;3.40;;;;;;;2.54;80.57;100695.41;5093871;28;20111;-64
2022/04/09 03:13:06;;;;;;;19.60;3.65;;;;;;;2.53;80.65;100701.56;5080090;28;20028;-64
2022/04/09 03:15:31;;;;;;;9.75;2.60;;;;;;;2.51;80.56;100706.03;5093294;28;20067;-64
2022/04/09 03:17:57;;;;;;;18.05;3.47;;;;;;;2.50;80.19;100706.94;5092961;28;20024;-64
2022/04/09 03:20:22;;;;;;;17.05;3.33;;;;;;;2.48;80.09;100703.53;5092940;28;20101;-64
2022/04/09 03:22:48;;;;;;;13.95;2.75;;;;;;;2.44;80.53;100712.47;5092840;28;20027;-63
2022/04/09 03:25:14;;;;;;;11.13;2.97;;;;;;;2.43;80.43;100713.38;5092886;28;20032;-64
2022/04/09 03:27:40;;;;;;;15.07;3.30;;;;;;;2.38;80.27;100714.47;5093599;28;20091;-64
2022/04/09 03:30:08;;;;;;;14.80;3.30;;;;;;;2.37;80.44;100725.00;5093788;28;20024;-63
2022/04/09 03:32:36;;;;;;;14.68;2.90;;;;;;;2.35;80.48;100729.47;5093651;28;20026;-63
2022/04/09 03:35:01;;;;;;;11.57;2.97;;;;;;;2.30;80.86;100734.91;5111636;28;20030;-65
2022/04/09 03:37:27;;;;;;;14.15;3.53;;;;;;;2.29;80.55;100742.84;5112828;28;20114;-65
2022/04/09 03:39:52;;;;;;;11.80;3.25;;;;;;;2.26;80.73;100732.47;5109271;28;20538;-64
2022/04/09 03:42:18;;;;;;;13.52;3.10;;;;;;;2.21;80.77;100741.41;5093907;28;20069;-64
2022/04/09 03:44:43;;;;;;;18.23;3.65;;;;;;;2.19;81.11;100735.38;5093691;28;20016;-64
2022/04/09 03:47:08;;;;;;;19.38;3.55;;;;;;;2.18;81.43;100740.66;5093231;28;20115;-64
2022/04/09 03:49:33;;;;;;;12.63;2.80;;;;;;;2.15;81.18;100746.03;5093439;28;20385;-64
2022/04/09 03:51:59;;;;;;;12.68;3.47;;;;;;;2.13;81.43;100754.00;5093129;28;20024;-64
2022/04/09 03:54:30;;;;;;;15.18;3.92;;;;;;;2.12;81.57;100752.28;5093587;28;20500;-64
2022/04/09 03:56:56;;;;;;;13.65;3.17;;;;;;;2.09;82.00;100762.03;5093634;28;20032;-64
2022/04/09 03:59:21;;;;;;;11.70;2.90;;;;;;;2.06;82.26;100744.66;5093078;28;20028;-64
2022/04/09 04:01:47;;;;;;;17.95;3.33;;;;;;;2.06;82.03;100759.56;5093062;28;20411;-64
2022/04/09 04:04:13;;;;;;;13.88;3.30;;;;;;;2.03;82.12;100769.25;5093015;28;20481;-64
2022/04/09 04:06:40;;;;;;;13.38;3.60;;;;;;;2.03;82.51;100776.22;5085605;28;20035;-64
2022/04/09 04:09:06;;;;;;;12.18;3.33;;;;;;;2.01;81.93;100775.44;5113255;28;20512;-64
2022/04/09 04:11:32;;;;;;;15.32;3.40;;;;;;;2.00;82.34;100779.84;5107598;28;20055;-64
2022/04/09 04:13:57;;;;;;;11.98;3.17;;;;;;;2.00;82.56;100774.63;5092922;28;20051;-64
2022/04/09 04:16:22;;;;;;;13.18;3.20;;;;;;;1.99;82.52;100783.38;5092662;28;20442;-64
2022/04/09 04:18:47;;;;;;;12.98;3.50;;;;;;;1.98;82.05;100784.31;5092603;28;20024;-64
2022/04/09 04:21:13;;;;;;;15.52;3.53;;;;;;;1.98;82.52;100796.53;5093325;28;20016;-64
2022/04/09 04:23:38;;;;;;;18.17;3.60;;;;;;;1.97;82.01;100798.31;5092622;28;20028;-64
2022/04/09 04:26:03;;;;;;;14.63;3.33;;;;;;;1.96;82.51;100804.44;5092623;28;20468;-64
2022/04/09 04:28:29;;;;;;;15.68;3.35;;;;;;;1.95;82.38;100807.13;5092289;28;20385;-64
2022/04/09 04:30:55;;;;;;;15.25;3.20;;;;;;;1.95;82.47;100807.13;5092468;28;20127;-64
2022/04/09 04:33:20;;;;;;;17.73;3.88;;;;;;;1.94;82.72;100805.44;5096417;28;20028;-64
2022/04/09 04:35:45;;;;;;;13.30;3.67;;;;;;;1.92;82.65;100813.38;5112747;28;20050;-64
2022/04/09 04:38:11;;;;;;;20.50;4.00;;;;;;;1.90;82.96;100811.72;5098608;28;20047;-64
2022/04/09 04:40:37;;;;;;;16.65;3.65;;;;;;;1.89;83.14;100821.34;5092158;28;20028;-64
2022/04/09 04:43:02;;;;;;;13.15;3.50;;;;;;;1.87;83.26;100810.09;5092652;28;20386;-64
2022/04/09 04:45:29;;;;;;;18.08;3.58;;;;;;;1.87;83.53;100820.56;5092280;28;20429;-64
2022/04/09 04:47:55;;;;;;;16.13;3.83;;;;;;;1.86;83.08;100824.09;5091985;28;20045;-64
2022/04/09 04:50:20;;;;;;;17.15;3.30;;;;;;;1.86;83.84;100831.94;5091408;28;20036;-64
2022/04/09 04:52:46;;;;;;;15.30;3.92;;;;;;;1.85;83.39;100835.50;5092220;28;20097;-64
2022/04/09 04:55:12;;;;;;;14.93;3.80;;;;;;;1.84;83.22;100836.41;5092233;28;20024;-64
2022/04/09 04:57:41;;;;;;;19.77;3.42;;;;;;;1.86;84.12;100842.41;5091671;28;20031;-64
2022/04/09 05:00:08;;;;;;;18.23;3.33;;;;;;;1.86;83.40;100845.03;5091943;28;20428;-64
2022/04/09 05:02:33;;;;;;;12.38;2.97;;;;;;;1.85;83.78;100844.19;5091906;28;20461;-64
2022/04/09 05:05:01;;;;;;;15.57;3.45;;;;;;;1.86;83.82;100855.50;5092432;28;20055;-64
2022/04/09 05:07:40;;;;;;;13.23;3.40;;;;;;;1.88;83.50;100858.06;5092052;28;20060;-64
2022/04/09 05:10:07;;;;;;;14.23;3.35;;;;;;;1.86;83.38;100860.75;5091818;28;20024;-64
2022/04/09 05:12:33;;;;;;;20.23;3.97;;;;;;;1.88;83.36;100866.78;5091607;28;20063;-64
2022/04/09 05:14:59;;;;;;;13.05;3.50;;;;;;;1.90;83.42;100871.94;5091074;28;20053;-64
2022/04/09 05:17:24;;;;;;;12.88;3.28;;;;;;;1.91;83.84;100878.91;5111407;28;20035;-65
2022/04/09 05:19:50;;;;;;;12.07;3.80;;;;;;;1.92;83.50;100878.00;5108190;28;20089;-65
2022/04/09 05:22:15;;;;;;;18.80;3.63;;;;;;;1.93;83.88;100888.44;5091823;28;20028;-65
2022/04/09 05:24:40;;;;;;;15.82;3.65;;;;;;;1.95;83.70;100890.94;5091071;28;20020;-65
2022/04/09 05:27:06;;;;;;;13.82;3.97;;;;;;;1.96;83.76;100895.28;5091154;28;20040;-64
2022/04/09 05:29:31;;;;;;;14.07;3.83;;;;;;;1.99;84.06;100900.41;5073033;28;20413;-63
2022/04/09 05:31:57;;;;;;;13.88;3.53;;;;;;;2.00;83.67;100902.13;5091438;28;20309;-63
2022/04/09 05:34:22;;;;;;;23.45;4.22;;;;;;;2.03;83.83;100908.09;5101688;28;20039;-64
2022/04/09 05:36:47;;;;;;;17.60;3.95;;;;;;;2.07;84.12;100915.84;5091448;28;20430;-65
2022/04/09 05:39:12;;;;;;;15.75;3.85;;;;;;;2.10;84.14;100913.94;5091332;28;20086;-64
2022/04/09 05:41:38;;;;;;;15.68;3.90;;;;;;;2.14;84.24;100919.91;5091221;28;20025;-64
2022/04/09 05:44:04;;;;;;;15.32;3.55;;;;;;;2.17;84.18;100927.66;5091054;28;20036;-65
2022/04/09 05:46:29;;;;;;;10.93;3.60;;;;;;;2.22;84.55;100933.56;5091132;28;20549;-64
2022/04/09 05:48:54;;;;;;;21.45;4.25;;;;;;;2.27;84.12;100938.63;5091086;28;20035;-65
2022/04/09 05:51:20;;;;;;;20.42;4.05;;;;;;;2.31;83.94;100935.78;5091776;28;20320;-65
2022/04/09 05:53:45;;;;;;;12.80;3.65;;;;;;;2.36;84.28;100941.69;5091616;28;20028;-65
2022/04/09 05:56:10;;;;;;;19.40;3.97;;;;;;;2.42;83.78;100947.63;5091368;28;20052;-65
2022/04/09 05:58:39;;;;;;;15.30;3.42;;;;;;;2.47;83.81;100940.41;5091509;28;20743;-65
2022/04/09 06:01:05;;;;;;;15.77;3.70;;;;;;;2.52;83.94;100955.03;5091342;28;20039;-66
2022/04/09 06:03:30;;;;;;;15.63;3.55;;;;;;;2.57;83.67;100958.31;5091502;28;20385;-65
2022/04/09 06:05:55;;;;;;;21.63;4.63;;;;;;;2.64;84.02;100958.91;5091491;28;20067;-65
2022/04/09 06:08:21;;;;;;;15.48;3.88;;;;;;;2.69;83.87;100961.34;5072606;28;20489;-65
2022/04/09 06:10:46;;;;;;;13.38;3.55;;;;;;;2.74;83.78;100964.63;5091390;28;20373;-65
2022/04/09 06:13:13;;;;;;;17.02;3.95;;;;;;;2.77;83.53;100969.75;5090952;28;20028;-65
2022/04/09 06:15:38;;;;;;;18.52;3.75;;;;;;;2.82;83.69;100967.78;5090778;28;20094;-65
2022/04/09 06:18:05;;;;;;;17.23;4.10;;;;;;;2.87;83.63;100973.69;5091005;28;20032;-65
2022/04/09 06:20:30;;;;;;;19.05;3.97;;;;;;;2.94;83.54;100979.53;5091082;28;20113;-65
2022/04/09 06:22:56;;;;;;;17.38;3.95;;;;;;;3.00;83.34;100981.03;5103234;28;20115;-66
2022/04/09 06:25:21;;;;;;;19.25;3.67;;;;;;;3.04;83.31;100986.09;5110014;28;20429;-66
2022/04/09 06:27:46;;;;;;;20.30;4.35;;;;;;;3.10;83.03;100982.34;5105328;28;20024;-66
2022/04/09 06:30:12;;;;;;;19.98;4.18;;;;;;;3.15;83.19;100991.72;5111708;28;20665;-65
2022/04/09 06:32:38;;;;;;;12.57;3.35;;;;;;;3.23;83.04;100998.41;5096128;28;20042;-66
2022/04/09 06:35:04;;;;;;;16.73;3.97;;;;;;;3.33;83.00;101004.94;5097224;28;20032;-65
2022/04/09 06:37:30;;;;;;;16.25;4.20;;;;;;;3.43;83.03;101002.78;5096172;28;20051;-66
2022/04/09 06:39:56;;;;;;;13.10;3.13;;;;;;;3.50;82.65;101010.34;5096673;28;20479;-66
2022/04/09 06:42:21;;;;;;;10.80;3.22;;;;;;;3.60;82.63;101009.94;5075649;28;20043;-66
2022/04/09 06:44:46;;;;;;;13.77;3.92;;;;;;;3.70;82.99;101012.06;5095932;28;20389;-66
2022/04/09 06:47:12;;;;;;;13.32;3.72;;;;;;;3.83;82.38;101009.75;5096031;28;20116;-66
2022/04/09 06:49:38;;;;;;;15.45;3.33;;;;;;;4.01;82.50;101008.03;5074626;28;20109;-66
2022/04/09 06:52:03;;;;;;;16.67;2.97;;;;;;;4.16;81.88;101014.31;5077323;28;20048;-66
2022/04/09 06:54:29;;;;;;;20.00;4.50;;;;;;;4.33;82.21;101013.56;5093688;28;20035;-66
2022/04/09 06:56:54;;;;;;;14.30;3.60;;;;;;;4.46;81.80;101013.78;5094618;28;20040;-65
2022/04/09 06:59:19;;;;;;;18.08;3.20;;;;;;;4.55;80.97;101020.41;5092877;28;20122;-65
2022/04/09 07:01:44;;;;;;;15.75;3.50;;;;;;;4.62;80.49;101024.44;5092933;28;20040;-65
2022/04/09 07:04:10;;;;;;;15.50;3.20;;;;;;;4.67;79.87;101026.84;5094077;28;20043;-65
2022/04/09 07:06:35;;;;;;;15.57;3.42;;;;;;;4.68;79.10;101033.78;5104146;28;20035;-64
2022/04/09 07:09:00;;;;;;;17.58;3.80;;;;;;;4.72;78.30;101036.22;5120513;28;20477;-64
2022/04/09 07:11:26;;;;;;;12.38;3.05;;;;;;;4.74;78.32;101033.50;5117929;28;20875;-65
2022/04/09 07:13:52;;;;;;;14.63;4.05;;;;;;;4.77;78.25;101041.25;5125922;28;20508;-64
2022/04/09 07:16:17;;;;;;;14.50;3.58;;;;;;;4.81;78.40;101040.16;5116562;28;20043;-65
2022/04/09 07:18:42;;;;;;;14.27;3.40;;;;;;;4.88;77.86;101045.97;5109983;28;20040;-64
2022/04/09 07:21:08;;;;;;;14.75;3.53;;;;;;;4.98;77.59;101055.13;5095390;28;20128;-64
2022/04/09 07:23:33;;;;;;;14.23;3.65;;;;;;;5.05;77.42;101053.06;5096118;28;20024;-64
2022/04/09 07:25:59;;;;;;;14.57;3.10;;;;;;;5.15;77.44;101052.50;5087173;28;20522;-65
2022/04/09 07:28:24;;;;;;;12.93;3.13;;;;;;;5.31;77.38;101060.50;5082696;27;20530;-64
2022/04/09 07:30:49;;;;;;;15.98;3.60;;;;;;;5.42;76.06;101059.06;5124684;27;20043;-64
2022/04/09 07:33:14;;;;;;;15.15;3.42;;;;;;;5.53;75.40;101054.94;5110919;27;20023;-64
2022/04/09 07:35:40;;;;;;;17.73;3.30;;;;;;;5.67;75.08;101063.91;5114783;28;20061;-65
2022/04/09 07:38:07;;;;;;;14.45;3.60;;;;;;;5.87;74.67;101062.88;5114354;28;20032;-65
2022/04/09 07:40:33;;;;;;;15.02;3.67;;;;;;;6.09;75.18;101073.97;5104702;28;20554;-65
2022/04/09 07:42:59;;;;;;;17.30;4.50;;;;;;;6.33;73.72;101076.22;5095288;28;20028;-65
2022/04/09 07:45:26;;;;;;;10.68;3.38;;;;;;;6.64;74.96;101062.19;5110471;28;20020;-64
2022/04/09 07:47:56;;;;;;;12.75;3.10;;;;;;;6.89;72.77;101076.59;5098838;28;20040;-64
2022/04/09 07:50:22;;;;;;;15.25;4.03;;;;;;;7.12;70.64;101074.44;5092308;28;20484;-64
2022/04/09 07:52:47;;;;;;;16.40;3.47;;;;;;;7.37;70.96;101071.19;5075009;28;20032;-65
2022/04/09 07:55:16;;;;;;;13.27;3.20;;;;;;;7.64;70.68;101073.09;5094384;28;20059;-64
2022/04/09 07:57:41;;;;;;;15.55;3.50;;;;;;;7.82;69.39;101069.34;5092683;28;20040;-65
2022/04/09 08:00:08;;;;;;;15.65;3.63;;;;;;;8.02;67.78;101077.84;5092578;28;20024;-64
2022/04/09 08:02:34;;;;;;;14.27;3.40;;;;;;;8.19;66.53;101080.28;5092224;28;20040;-65
2022/04/09 08:05:00;;;;;;;14.25;3.63;;;;;;;8.42;65.68;101080.63;5073591;28;20020;-65
2022/04/09 08:07:25;;;;;;;13.35;3.85;;;;;;;8.61;65.10;101081.19;5091317;28;20067;-65
2022/04/09 08:09:50;;;;;;;17.42;4.18;;;;;;;8.84;65.92;101077.03;5092475;28;20107;-65
2022/04/09 08:12:16;;;;;;;17.45;3.67;;;;;;;9.05;64.95;101074.75;5091894;28;20063;-65
2022/04/09 08:14:45;;;;;;;13.85;3.70;;;;;;;9.22;62.98;101072.78;5092083;28;20394;-65
2022/04/09 08:17:11;;;;;;;;;;;;;;;9.41;66.59;101085.66;5057631;28;20436;-65
2022/04/09 08:19:36;;;;;;;16.02;3.67;;;;;;;9.70;61.87;101077.50;5092436;28;19923;-65
2022/04/09 08:22:03;;;;;;;14.18;3.45;;;;;;;9.95;60.60;101080.13;5091604;28;20071;-65
2022/04/09 08:24:28;;;;;;;10.38;3.45;;;;;;;10.03;58.07;101079.59;5091052;28;20078;-65
2022/04/09 08:26:54;;;;;;;12.60;3.53;;;;;;;10.09;57.70;101086.28;5091385;28;20497;-64
2022/04/09 08:29:20;;;;;;;11.15;3.40;;;;;;;10.15;55.59;101093.81;5099571;27;20027;-66
2022/04/09 08:31:47;;;;;;;10.55;2.95;;;;;;;10.22;54.19;101088.91;5091821;28;20413;-66
2022/04/09 08:34:14;;;;;;;11.60;3.40;;;;;;;10.31;55.34;101082.94;5099932;28;20167;-65
2022/04/09 08:36:39;;;;;;;11.07;2.70;;;;;;;10.46;52.63;101086.31;5106741;27;20032;-65
2022/04/09 08:39:05;;;;;;;7.07;2.28;;;;;;;10.64;53.50;101094.75;5111720;28;20062;-65
2022/04/09 08:41:30;;;;;;;11.35;3.20;;;;;;;10.82;53.73;101098.72;5110209;28;20061;-65
2022/04/09 08:43:56;;;;;;;11.48;2.90;;;;;;;11.07;54.16;101104.88;5091608;28;20435;-64
2022/04/09 08:46:25;;;;;;;15.38;3.50;;;;;;;11.17;52.73;101105.06;5090561;28;20107;-63
2022/04/09 08:48:50;;;;;;;14.63;3.35;;;;;;;11.14;51.80;101099.97;5091149;28;20116;-63
2022/04/09 08:51:16;;;;;;;8.43;3.45;;;;;;;11.11;51.45;101109.88;5090186;28;20537;-64
2022/04/09 08:53:42;;;;;;;10.75;3.10;;;;;;;11.23;50.85;101116.06;5091039;28;20441;-64
2022/04/09 08:56:10;;;;;;;6.85;2.35;;;;;;;11.43;48.51;101125.19;5090670;28;20024;-64
2022/04/09 08:58:35;;;;;;;12.00;2.42;;;;;;;11.47;48.72;101123.16;5091281;28;20035;-64
2022/04/09 09:01:00;;;;;;;9.70;2.80;;;;;;;11.58;47.91;101127.69;5090608;28;20405;-64
2022/04/09 09:03:26;;;;;;;8.55;2.70;;;;;;;11.51;46.90;101129.09;5093785;28;20331;-64
2022/04/09 09:05:52;;;;;;;6.75;2.35;;;;;;;11.47;47.58;101136.44;5090758;28;20024;-64
2022/04/09 09:08:43;;;;;;;11.57;2.67;;;;;;;11.46;48.75;101145.41;5090160;28;20036;-64
2022/04/09 09:11:09;;;;;;;5.53;1.88;;;;;;;11.62;47.55;101145.09;5092790;28;20032;-64
2022/04/09 09:13:55;;;;;;;6.63;2.08;;;;;;;11.80;48.86;101149.00;5090394;28;20424;-64
2022/04/09 09:16:31;;;;;;;6.30;1.80;;;;;;;11.87;47.14;101146.69;5089623;28;20016;-64
2022/04/09 09:19:06;;;;;;;8.27;1.83;;;;;;;11.96;46.52;101142.53;5090861;28;20024;-64
2022/04/09 09:21:31;;;;;;;5.40;1.98;;;;;;;12.05;44.18;101147.13;5089238;28;20051;-64
2022/04/09 09:24:08;;;;;;;6.60;2.17;;;;;;;12.16;45.77;101148.97;5100668;28;20034;-64
2022/04/09 09:26:39;;;;;;;5.82;1.88;;;;;;;12.43;45.54;101148.59;5110389;28;20047;-65
2022/04/09 09:29:05;;;;;;;8.00;1.73;;;;;;;12.43;42.89;101156.59;5084069;28;20078;-65
2022/04/09 09:31:44;;;;;;;6.15;1.70;;;;;;;12.38;43.04;101151.63;5071986;28;20105;-64
2022/04/09 09:34:19;;;;;;;7.53;1.90;;;;;;;12.23;43.36;101158.16;5101267;28;20035;-65
2022/04/09 09:36:44;;;;;;;6.05;1.70;;;;;;;12.17;42.47;101167.50;5090855;28;20471;-64
2022/04/09 09:39:11;;;;;;;7.57;1.90;;;;;;;12.12;43.62;101153.66;5094204;28;20031;-65
2022/04/09 09:41:50;;;;;;;7.80;1.85;;;;;;;12.11;45.00;101162.63;5089753;28;20044;-65
2022/04/09 09:44:17;;;;;;;6.35;2.08;;;;;;;12.03;41.94;101165.88;5090468;28;20032;-64
2022/04/09 09:46:43;;;;;;;3.53;1.60;;;;;;;11.82;42.63;101163.06;5072143;28;20535;-64
2022/04/09 09:49:09;;;;;;;6.10;2.00;;;;;;;11.87;42.58;101159.19;5090319;28;20032;-65
2022/04/09 09:51:34;;;;;;;4.68;1.88;;;;;;;11.92;44.34;101165.03;5090416;28;20035;-64
2022/04/09 09:54:07;;;;;;;3.65;1.70;;;;;;;11.78;43.79;101160.75;5093350;28;20071;-64
2022/04/09 09:56:38;;;;;;;6.53;1.75;;;;;;;11.85;44.10;101162.78;5091352;28;20054;-63
2022/04/09 09:59:05;;;;;;;7.82;2.15;;;;;;;11.90;43.22;101164.25;5090372;28;20099;-64
2022/04/09 10:01:35;;;;;;;3.17;1.50;;;;;;;12.06;43.57;101166.59;5089446;28;20032;-64
2022/04/09 10:04:02;;;;;;;5.90;1.95;;;;;;;12.09;43.23;101177.88;5073170;28;20027;-63
2022/04/09 10:06:27;;;;;;;4.10;1.60;;;;;;;12.19;41.29;101170.00;5094374;28;20031;-65
2022/04/09 10:08:53;;;;;;;4.00;1.52;;;;;;;12.21;40.39;101168.94;5106095;28;20048;-64
2022/04/09 10:11:19;;;;;;;5.85;1.65;;;;;;;12.10;39.67;101165.41;5082932;28;20032;-63
2022/04/09 10:13:47;;;;;;;7.80;1.45;;;;;;;12.00;40.90;101165.28;5090192;28;20048;-64
2022/04/09 10:16:18;;;;;;;3.30;1.50;;;;;;;11.88;40.48;101177.69;5090101;28;20032;-64
2022/04/09 10:18:47;;;;;;;4.25;1.50;;;;;;;12.05;40.61;101171.09;5089913;28;20403;-64
2022/04/09 10:21:13;;;;;;;4.05;1.38;;;;;;;12.07;40.58;101170.97;5089918;28;20453;-64
2022/04/09 10:23:40;;;;;;;3.72;1.70;;;;;;;11.99;40.69;101176.88;5089587;28;20036;-63
2022/04/09 10:26:06;;;;;;;4.78;1.90;;;;;;;11.86;40.18;101174.31;5089629;28;20131;-64
2022/04/09 10:28:39;;;;;;;3.03;1.70;;;;;;;11.64;39.36;101185.72;5088404;28;20055;-64
2022/04/09 10:31:23;;;;;;;6.38;1.65;;;;;;;11.52;40.81;101186.66;5089724;28;20470;-64
2022/04/09 10:33:55;;;;;;;4.10;1.25;;;;;;;11.43;39.22;101182.88;5079447;28;20050;-63
2022/04/09 10:36:42;;;;;;;4.22;1.95;;;;;;;11.51;40.28;101183.16;5105856;28;20496;-64
2022/04/09 10:39:25;;;;;;;7.35;1.85;;;;;;;11.49;41.11;101187.75;5089770;28;20028;-64
2022/04/09 10:41:51;;;;;;;2.47;1.40;;;;;;;11.35;40.40;101185.25;5091035;28;20375;-64
2022/04/09 10:44:52;;;;;;;5.68;1.73;;;;;;;11.43;42.64;101190.84;5091919;28;20065;-63
2022/04/09 10:47:18;;;;;;;6.07;1.75;;;;;;;11.30;39.94;101189.09;5088861;28;20040;-64
2022/04/09 10:50:01;;;;;;;3.65;1.33;;;;;;;11.28;41.51;101191.03;5110140;28;20027;-64
2022/04/09 10:52:28;;;;;;;3.95;1.70;;;;;;;11.29;39.92;101192.75;5086795;28;20046;-64
2022/04/09 10:55:23;;;;;;;2.72;1.15;;;;;;;11.46;40.88;101191.47;5071335;28;20028;-64
2022/04/09 10:57:51;;;;;;;5.88;1.42;;;;;;;11.67;39.72;101190.81;5089466;28;20071;-64
2022/04/09 11:00:26;;;;;;;4.43;1.48;;;;;;;11.97;39.83;101198.31;5089338;28;20020;-64
2022/04/09 11:03:15;;;;;;;3.63;1.33;;;;;;;12.27;40.64;101185.41;5089315;28;20081;-64
2022/04/09 11:05:43;;;;;;;5.13;1.40;;;;;;;12.50;40.36;101187.09;5089407;28;20474;-65
2022/04/09 11:08:18;;;;;;;5.20;1.48;;;;;;;12.62;37.64;101182.59;5088889;28;20091;-65
2022/04/09 11:10:44;;;;;;;6.22;1.55;;;;;;;12.87;36.27;101180.63;5089475;28;20073;-65
2022/04/09 11:13:12;;;;;;;2.42;0.95;;;;;;;13.01;34.35;101185.69;5090358;28;20130;-65
2022/04/09 11:15:39;;;;;;;3.00;1.17;;;;;;;13.03;33.81;101185.56;5093151;28;20520;-65
2022/04/09 11:18:05;;;;;;;3.03;1.20;;;;;;;12.98;34.37;101183.28;5092415;28;20039;-65
2022/04/09 11:20:35;;;;;;;4.05;1.20;;;;;;;12.98;34.13;101188.59;5092896;28;20039;-65
2022/04/09 11:23:12;;;;;;;2.42;1.20;;;;;;;12.92;36.92;101192.63;5092851;28;20063;-65
2022/04/09 11:25:41;;;;;;;6.13;1.50;;;;;;;12.74;34.57;101194.97;5074583;28;20378;-64